Chaudfontaine, Belgium
Current Conditions -  °F | °C
As of 1:20 PM on Thursday 18 Dec 2014 (Local Time) from EBLG Reporting Station
Drizzle Drizzle  
Wind Chill: 52°   Ceiling: 600
Heat Index: 52°   Visibility: 1.8mi
Dew Point: 50°   Wind: 16mph
Humidity: 94%   Direction: 250°WSW
Pressure: 29.91"   Gusts: NA
Location:  50.58°N, 5.63°E
Report Text: EBLG 181220Z 25014KT 3000 -DZ SCT004 BKN006 11/10 Q1013 TEMPO 3000 -DZ BR BKN004
Loading
Personal Weather Stations






























Interactive Weather Map New forecast layout! Learn more

10-Day Weather Forecast

Advertisements
Track Severe Weather on mobile